sensor_id;sensor_type;location;lat;lon;timestamp;P1;durP1;ratioP1;P2;durP2;ratioP2
79149;SDS011;68563;45.644;13.782;2024-02-16T00:00:02;31.35;;;14.25;;
79149;SDS011;68563;45.644;13.782;2024-02-16T00:02:28;34.10;;;14.50;;
79149;SDS011;68563;45.644;13.782;2024-02-16T00:04:54;32.25;;;14.63;;
79149;SDS011;68563;45.644;13.782;2024-02-16T00:07:20;36.33;;;14.68;;
79149;SDS011;68563;45.644;13.782;2024-02-16T00:09:45;32.28;;;14.85;;
79149;SDS011;68563;45.644;13.782;2024-02-16T00:12:11;32.17;;;14.30;;
79149;SDS011;68563;45.644;13.782;2024-02-16T00:14:36;32.30;;;14.32;;
79149;SDS011;68563;45.644;13.782;2024-02-16T00:17:02;32.40;;;14.52;;
79149;SDS011;68563;45.644;13.782;2024-02-16T00:19:28;33.75;;;15.15;;
79149;SDS011;68563;45.644;13.782;2024-02-16T00:21:54;32.17;;;14.07;;
79149;SDS011;68563;45.644;13.782;2024-02-16T00:24:20;30.88;;;14.05;;
79149;SDS011;68563;45.644;13.782;2024-02-16T00:26:46;31.98;;;14.57;;
79149;SDS011;68563;45.644;13.782;2024-02-16T00:29:11;32.90;;;14.32;;
79149;SDS011;68563;45.644;13.782;2024-02-16T00:31:38;33.60;;;14.35;;
79149;SDS011;68563;45.644;13.782;2024-02-16T00:34:04;34.10;;;14.73;;
79149;SDS011;68563;45.644;13.782;2024-02-16T00:36:30;30.15;;;13.65;;
79149;SDS011;68563;45.644;13.782;2024-02-16T00:38:56;30.42;;;14.73;;
79149;SDS011;68563;45.644;13.782;2024-02-16T00:41:22;30.70;;;14.52;;
79149;SDS011;68563;45.644;13.782;2024-02-16T00:43:49;32.08;;;13.85;;
79149;SDS011;68563;45.644;13.782;2024-02-16T00:46:16;31.20;;;14.32;;
79149;SDS011;68563;45.644;13.782;2024-02-16T00:48:42;30.25;;;13.82;;
79149;SDS011;68563;45.644;13.782;2024-02-16T00:51:07;30.95;;;14.05;;
79149;SDS011;68563;45.644;13.782;2024-02-16T00:53:33;33.20;;;14.32;;
79149;SDS011;68563;45.644;13.782;2024-02-16T00:55:58;30.40;;;13.70;;
79149;SDS011;68563;45.644;13.782;2024-02-16T00:58:23;33.95;;;13.43;;
79149;SDS011;68563;45.644;13.782;2024-02-16T01:00:49;30.52;;;13.43;;
79149;SDS011;68563;45.644;13.782;2024-02-16T01:03:14;31.50;;;13.95;;
79149;SDS011;68563;45.644;13.782;2024-02-16T01:05:40;31.80;;;14.32;;
79149;SDS011;68563;45.644;13.782;2024-02-16T01:08:06;32.55;;;13.73;;
79149;SDS011;68563;45.644;13.782;2024-02-16T01:10:31;27.70;;;13.00;;
79149;SDS011;68563;45.644;13.782;2024-02-16T01:12:57;29.67;;;12.70;;
79149;SDS011;68563;45.644;13.782;2024-02-16T01:15:22;27.10;;;13.48;;
79149;SDS011;68563;45.644;13.782;2024-02-16T01:17:48;33.22;;;14.70;;
79149;SDS011;68563;45.644;13.782;2024-02-16T01:20:13;34.00;;;14.07;;
79149;SDS011;68563;45.644;13.782;2024-02-16T01:22:39;36.58;;;15.18;;
79149;SDS011;68563;45.644;13.782;2024-02-16T01:25:05;32.63;;;13.98;;
79149;SDS011;68563;45.644;13.782;2024-02-16T01:27:31;32.95;;;13.88;;
79149;SDS011;68563;45.644;13.782;2024-02-16T01:29:57;31.80;;;12.98;;
79149;SDS011;68563;45.644;13.782;2024-02-16T01:32:22;29.20;;;13.10;;
79149;SDS011;68563;45.644;13.782;2024-02-16T01:34:48;27.25;;;12.15;;
79149;SDS011;68563;45.644;13.782;2024-02-16T01:37:14;29.58;;;13.20;;
79149;SDS011;68563;45.644;13.782;2024-02-16T01:39:40;32.97;;;13.93;;
79149;SDS011;68563;45.644;13.782;2024-02-16T01:42:05;29.42;;;13.75;;
79149;SDS011;68563;45.644;13.782;2024-02-16T01:44:31;28.10;;;13.38;;
79149;SDS011;68563;45.644;13.782;2024-02-16T01:46:56;28.58;;;11.68;;
79149;SDS011;68563;45.644;13.782;2024-02-16T01:49:22;27.70;;;12.98;;
79149;SDS011;68563;45.644;13.782;2024-02-16T01:51:48;25.73;;;12.77;;
79149;SDS011;68563;45.644;13.782;2024-02-16T01:54:14;27.98;;;12.40;;
79149;SDS011;68563;45.644;13.782;2024-02-16T01:56:42;29.27;;;12.43;;
79149;SDS011;68563;45.644;13.782;2024-02-16T01:59:08;27.98;;;12.73;;
79149;SDS011;68563;45.644;13.782;2024-02-16T02:01:34;29.88;;;12.30;;
79149;SDS011;68563;45.644;13.782;2024-02-16T02:04:00;28.35;;;12.23;;
79149;SDS011;68563;45.644;13.782;2024-02-16T02:06:25;25.55;;;12.35;;
79149;SDS011;68563;45.644;13.782;2024-02-16T02:08:51;27.92;;;12.20;;
79149;SDS011;68563;45.644;13.782;2024-02-16T02:11:16;28.45;;;12.82;;
79149;SDS011;68563;45.644;13.782;2024-02-16T02:13:42;27.95;;;12.23;;
79149;SDS011;68563;45.644;13.782;2024-02-16T02:16:07;26.80;;;12.25;;
79149;SDS011;68563;45.644;13.782;2024-02-16T02:18:35;27.50;;;12.10;;
79149;SDS011;68563;45.644;13.782;2024-02-16T02:21:00;27.20;;;12.48;;
79149;SDS011;68563;45.644;13.782;2024-02-16T02:23:25;29.20;;;13.38;;
79149;SDS011;68563;45.644;13.782;2024-02-16T02:25:51;27.05;;;12.43;;
79149;SDS011;68563;45.644;13.782;2024-02-16T02:28:16;29.88;;;12.55;;
79149;SDS011;68563;45.644;13.782;2024-02-16T02:30:43;26.27;;;12.35;;
79149;SDS011;68563;45.644;13.782;2024-02-16T02:33:10;29.25;;;12.98;;
79149;SDS011;68563;45.644;13.782;2024-02-16T02:35:37;32.63;;;14.40;;
79149;SDS011;68563;45.644;13.782;2024-02-16T02:38:03;33.80;;;14.85;;
79149;SDS011;68563;45.644;13.782;2024-02-16T02:40:29;29.20;;;13.52;;
79149;SDS011;68563;45.644;13.782;2024-02-16T02:42:55;31.95;;;14.38;;
79149;SDS011;68563;45.644;13.782;2024-02-16T02:45:20;30.73;;;13.90;;
79149;SDS011;68563;45.644;13.782;2024-02-16T02:47:45;32.03;;;14.40;;
79149;SDS011;68563;45.644;13.782;2024-02-16T02:50:11;29.88;;;13.65;;
79149;SDS011;68563;45.644;13.782;2024-02-16T02:52:37;31.73;;;14.23;;
79149;SDS011;68563;45.644;13.782;2024-02-16T02:55:03;29.55;;;13.57;;
79149;SDS011;68563;45.644;13.782;2024-02-16T02:57:28;30.95;;;13.60;;
79149;SDS011;68563;45.644;13.782;2024-02-16T03:00:01;27.17;;;12.85;;
79149;SDS011;68563;45.644;13.782;2024-02-16T03:02:31;29.55;;;13.27;;
79149;SDS011;68563;45.644;13.782;2024-02-16T03:04:57;31.52;;;14.05;;
79149;SDS011;68563;45.644;13.782;2024-02-16T03:07:22;28.58;;;13.13;;
79149;SDS011;68563;45.644;13.782;2024-02-16T03:09:47;27.77;;;12.70;;
79149;SDS011;68563;45.644;13.782;2024-02-16T03:12:13;26.85;;;12.43;;
79149;SDS011;68563;45.644;13.782;2024-02-16T03:14:38;26.92;;;12.13;;
79149;SDS011;68563;45.644;13.782;2024-02-16T03:17:03;27.10;;;12.20;;
79149;SDS011;68563;45.644;13.782;2024-02-16T03:19:29;27.42;;;13.13;;
79149;SDS011;68563;45.644;13.782;2024-02-16T03:21:54;30.73;;;13.48;;
79149;SDS011;68563;45.644;13.782;2024-02-16T03:24:20;28.40;;;13.50;;
79149;SDS011;68563;45.644;13.782;2024-02-16T03:26:47;26.83;;;12.07;;
79149;SDS011;68563;45.644;13.782;2024-02-16T03:29:12;26.40;;;12.40;;
79149;SDS011;68563;45.644;13.782;2024-02-16T03:31:38;26.38;;;12.45;;
79149;SDS011;68563;45.644;13.782;2024-02-16T03:34:04;28.55;;;12.18;;
79149;SDS011;68563;45.644;13.782;2024-02-16T03:36:29;26.70;;;12.57;;
79149;SDS011;68563;45.644;13.782;2024-02-16T03:38:55;24.67;;;11.52;;
79149;SDS011;68563;45.644;13.782;2024-02-16T03:41:21;24.20;;;11.43;;
79149;SDS011;68563;45.644;13.782;2024-02-16T03:43:48;22.20;;;11.70;;
79149;SDS011;68563;45.644;13.782;2024-02-16T03:46:14;24.30;;;11.73;;
79149;SDS011;68563;45.644;13.782;2024-02-16T03:48:40;27.40;;;12.50;;
79149;SDS011;68563;45.644;13.782;2024-02-16T03:51:06;24.40;;;11.48;;
79149;SDS011;68563;45.644;13.782;2024-02-16T03:53:32;25.77;;;11.85;;
79149;SDS011;68563;45.644;13.782;2024-02-16T03:55:57;28.23;;;12.05;;
79149;SDS011;68563;45.644;13.782;2024-02-16T03:58:23;27.30;;;12.73;;
79149;SDS011;68563;45.644;13.782;2024-02-16T04:00:49;23.98;;;12.05;;
79149;SDS011;68563;45.644;13.782;2024-02-16T04:03:15;24.45;;;12.15;;
79149;SDS011;68563;45.644;13.782;2024-02-16T04:05:41;24.27;;;12.00;;
79149;SDS011;68563;45.644;13.782;2024-02-16T04:08:07;25.25;;;11.55;;
79149;SDS011;68563;45.644;13.782;2024-02-16T04:10:33;25.73;;;11.52;;
79149;SDS011;68563;45.644;13.782;2024-02-16T04:12:59;23.55;;;11.60;;
79149;SDS011;68563;45.644;13.782;2024-02-16T04:15:25;25.10;;;11.52;;
79149;SDS011;68563;45.644;13.782;2024-02-16T04:17:51;26.35;;;12.20;;
79149;SDS011;68563;45.644;13.782;2024-02-16T04:20:16;26.70;;;12.27;;
79149;SDS011;68563;45.644;13.782;2024-02-16T04:22:42;25.67;;;11.13;;
79149;SDS011;68563;45.644;13.782;2024-02-16T04:25:08;27.33;;;12.20;;
79149;SDS011;68563;45.644;13.782;2024-02-16T04:27:34;24.23;;;11.55;;
79149;SDS011;68563;45.644;13.782;2024-02-16T04:30:02;28.38;;;11.93;;
79149;SDS011;68563;45.644;13.782;2024-02-16T04:32:28;26.85;;;12.23;;
79149;SDS011;68563;45.644;13.782;2024-02-16T04:34:54;32.55;;;13.80;;
79149;SDS011;68563;45.644;13.782;2024-02-16T04:37:22;28.92;;;13.15;;
79149;SDS011;68563;45.644;13.782;2024-02-16T04:39:48;27.40;;;12.73;;
79149;SDS011;68563;45.644;13.782;2024-02-16T04:42:14;31.35;;;13.40;;
79149;SDS011;68563;45.644;13.782;2024-02-16T04:44:39;30.30;;;12.93;;
79149;SDS011;68563;45.644;13.782;2024-02-16T04:47:05;32.42;;;13.32;;
79149;SDS011;68563;45.644;13.782;2024-02-16T04:49:30;28.98;;;13.65;;
79149;SDS011;68563;45.644;13.782;2024-02-16T04:51:56;30.50;;;13.23;;
79149;SDS011;68563;45.644;13.782;2024-02-16T04:54:21;32.75;;;13.65;;
79149;SDS011;68563;45.644;13.782;2024-02-16T04:56:47;32.10;;;12.75;;
79149;SDS011;68563;45.644;13.782;2024-02-16T04:59:17;28.15;;;12.95;;
79149;SDS011;68563;45.644;13.782;2024-02-16T05:01:45;28.55;;;13.60;;
79149;SDS011;68563;45.644;13.782;2024-02-16T05:04:11;30.95;;;13.48;;
79149;SDS011;68563;45.644;13.782;2024-02-16T05:06:44;29.67;;;13.57;;
79149;SDS011;68563;45.644;13.782;2024-02-16T05:09:12;29.42;;;12.40;;
79149;SDS011;68563;45.644;13.782;2024-02-16T05:11:44;35.80;;;13.68;;
79149;SDS011;68563;45.644;13.782;2024-02-16T05:14:10;32.10;;;13.43;;
79149;SDS011;68563;45.644;13.782;2024-02-16T05:16:43;31.42;;;13.35;;
79149;SDS011;68563;45.644;13.782;2024-02-16T05:19:09;26.35;;;12.57;;
79149;SDS011;68563;45.644;13.782;2024-02-16T05:21:34;27.52;;;12.75;;
79149;SDS011;68563;45.644;13.782;2024-02-16T05:24:00;28.38;;;11.70;;
79149;SDS011;68563;45.644;13.782;2024-02-16T05:26:26;29.98;;;13.00;;
79149;SDS011;68563;45.644;13.782;2024-02-16T05:28:51;26.67;;;12.57;;
79149;SDS011;68563;45.644;13.782;2024-02-16T05:31:17;31.05;;;13.13;;
79149;SDS011;68563;45.644;13.782;2024-02-16T05:33:49;24.67;;;12.25;;
79149;SDS011;68563;45.644;13.782;2024-02-16T05:36:19;25.60;;;11.52;;
79149;SDS011;68563;45.644;13.782;2024-02-16T05:38:48;27.52;;;11.95;;
79149;SDS011;68563;45.644;13.782;2024-02-16T05:41:15;26.48;;;11.80;;
79149;SDS011;68563;45.644;13.782;2024-02-16T05:43:43;24.80;;;11.30;;
79149;SDS011;68563;45.644;13.782;2024-02-16T05:46:15;25.40;;;11.80;;
79149;SDS011;68563;45.644;13.782;2024-02-16T05:48:42;25.48;;;10.98;;
79149;SDS011;68563;45.644;13.782;2024-02-16T05:51:07;26.60;;;12.43;;
79149;SDS011;68563;45.644;13.782;2024-02-16T05:53:33;23.45;;;11.35;;
79149;SDS011;68563;45.644;13.782;2024-02-16T05:55:59;27.48;;;12.40;;
79149;SDS011;68563;45.644;13.782;2024-02-16T05:58:25;25.70;;;12.38;;
79149;SDS011;68563;45.644;13.782;2024-02-16T06:00:51;24.38;;;12.20;;
79149;SDS011;68563;45.644;13.782;2024-02-16T06:03:16;24.63;;;11.55;;
79149;SDS011;68563;45.644;13.782;2024-02-16T06:05:42;26.15;;;12.00;;
79149;SDS011;68563;45.644;13.782;2024-02-16T06:08:10;23.85;;;11.13;;
79149;SDS011;68563;45.644;13.782;2024-02-16T06:10:36;24.60;;;11.77;;
79149;SDS011;68563;45.644;13.782;2024-02-16T06:13:01;25.58;;;11.43;;
79149;SDS011;68563;45.644;13.782;2024-02-16T06:15:27;23.17;;;11.50;;
79149;SDS011;68563;45.644;13.782;2024-02-16T06:17:52;23.95;;;11.40;;
79149;SDS011;68563;45.644;13.782;2024-02-16T06:20:18;25.25;;;11.25;;
79149;SDS011;68563;45.644;13.782;2024-02-16T06:22:43;23.17;;;10.95;;
79149;SDS011;68563;45.644;13.782;2024-02-16T06:25:09;24.30;;;11.35;;
79149;SDS011;68563;45.644;13.782;2024-02-16T06:27:34;20.08;;;10.52;;
79149;SDS011;68563;45.644;13.782;2024-02-16T06:30:00;22.48;;;10.45;;
79149;SDS011;68563;45.644;13.782;2024-02-16T06:32:26;22.35;;;10.60;;
79149;SDS011;68563;45.644;13.782;2024-02-16T06:34:53;23.70;;;10.88;;
79149;SDS011;68563;45.644;13.782;2024-02-16T06:37:19;25.90;;;10.10;;
79149;SDS011;68563;45.644;13.782;2024-02-16T06:39:44;25.08;;;11.27;;
79149;SDS011;68563;45.644;13.782;2024-02-16T06:42:10;21.17;;;10.45;;
79149;SDS011;68563;45.644;13.782;2024-02-16T06:44:37;23.90;;;11.27;;
79149;SDS011;68563;45.644;13.782;2024-02-16T06:47:05;22.80;;;11.20;;
79149;SDS011;68563;45.644;13.782;2024-02-16T06:49:31;20.48;;;10.63;;
79149;SDS011;68563;45.644;13.782;2024-02-16T06:51:56;21.38;;;11.20;;
79149;SDS011;68563;45.644;13.782;2024-02-16T06:54:22;20.27;;;10.07;;
79149;SDS011;68563;45.644;13.782;2024-02-16T06:56:49;20.08;;;10.23;;
79149;SDS011;68563;45.644;13.782;2024-02-16T06:59:16;21.83;;;11.30;;
79149;SDS011;68563;45.644;13.782;2024-02-16T07:01:42;23.98;;;11.50;;
79149;SDS011;68563;45.644;13.782;2024-02-16T07:04:07;23.55;;;11.32;;
79149;SDS011;68563;45.644;13.782;2024-02-16T07:06:34;23.38;;;10.80;;
79149;SDS011;68563;45.644;13.782;2024-02-16T07:09:00;24.85;;;12.13;;
79149;SDS011;68563;45.644;13.782;2024-02-16T07:11:25;22.60;;;11.75;;
79149;SDS011;68563;45.644;13.782;2024-02-16T07:13:50;22.92;;;11.43;;
79149;SDS011;68563;45.644;13.782;2024-02-16T07:16:16;23.50;;;11.48;;
79149;SDS011;68563;45.644;13.782;2024-02-16T07:18:43;25.35;;;11.48;;
79149;SDS011;68563;45.644;13.782;2024-02-16T07:21:08;20.63;;;10.38;;
79149;SDS011;68563;45.644;13.782;2024-02-16T07:23:34;19.65;;;10.20;;
79149;SDS011;68563;45.644;13.782;2024-02-16T07:26:00;20.88;;;10.63;;
79149;SDS011;68563;45.644;13.782;2024-02-16T07:28:26;20.02;;;9.77;;
79149;SDS011;68563;45.644;13.782;2024-02-16T07:30:52;19.50;;;9.60;;
79149;SDS011;68563;45.644;13.782;2024-02-16T07:33:18;20.58;;;9.65;;
79149;SDS011;68563;45.644;13.782;2024-02-16T07:35:44;19.65;;;9.52;;
79149;SDS011;68563;45.644;13.782;2024-02-16T07:38:09;18.13;;;9.20;;
79149;SDS011;68563;45.644;13.782;2024-02-16T07:40:35;19.27;;;10.23;;
79149;SDS011;68563;45.644;13.782;2024-02-16T07:43:00;20.77;;;9.55;;
79149;SDS011;68563;45.644;13.782;2024-02-16T07:45:26;21.05;;;10.30;;
79149;SDS011;68563;45.644;13.782;2024-02-16T07:47:52;18.00;;;9.60;;
79149;SDS011;68563;45.644;13.782;2024-02-16T07:50:20;20.58;;;10.35;;
79149;SDS011;68563;45.644;13.782;2024-02-16T07:52:47;19.40;;;9.80;;
79149;SDS011;68563;45.644;13.782;2024-02-16T07:55:13;22.52;;;9.98;;
79149;SDS011;68563;45.644;13.782;2024-02-16T07:57:38;24.08;;;9.65;;
79149;SDS011;68563;45.644;13.782;2024-02-16T08:00:04;23.85;;;10.30;;
79149;SDS011;68563;45.644;13.782;2024-02-16T08:02:31;22.15;;;11.25;;
79149;SDS011;68563;45.644;13.782;2024-02-16T08:04:57;21.55;;;11.07;;
79149;SDS011;68563;45.644;13.782;2024-02-16T08:07:23;24.70;;;12.75;;
79149;SDS011;68563;45.644;13.782;2024-02-16T08:09:49;23.48;;;12.57;;
79149;SDS011;68563;45.644;13.782;2024-02-16T08:12:15;26.05;;;12.25;;
79149;SDS011;68563;45.644;13.782;2024-02-16T08:14:41;21.42;;;11.85;;
79149;SDS011;68563;45.644;13.782;2024-02-16T08:17:07;25.85;;;11.75;;
79149;SDS011;68563;45.644;13.782;2024-02-16T08:19:33;21.75;;;10.95;;
79149;SDS011;68563;45.644;13.782;2024-02-16T08:22:03;17.42;;;9.68;;
79149;SDS011;68563;45.644;13.782;2024-02-16T08:24:36;21.15;;;10.45;;
79149;SDS011;68563;45.644;13.782;2024-02-16T08:27:03;24.17;;;10.40;;
79149;SDS011;68563;45.644;13.782;2024-02-16T08:29:29;18.48;;;9.57;;
79149;SDS011;68563;45.644;13.782;2024-02-16T08:31:55;21.60;;;11.02;;
79149;SDS011;68563;45.644;13.782;2024-02-16T08:34:20;19.65;;;10.95;;
79149;SDS011;68563;45.644;13.782;2024-02-16T08:36:46;30.42;;;13.52;;
79149;SDS011;68563;45.644;13.782;2024-02-16T08:39:13;21.23;;;10.95;;
79149;SDS011;68563;45.644;13.782;2024-02-16T08:41:39;20.92;;;11.32;;
79149;SDS011;68563;45.644;13.782;2024-02-16T08:44:05;20.55;;;10.95;;
79149;SDS011;68563;45.644;13.782;2024-02-16T08:46:34;23.13;;;11.80;;
79149;SDS011;68563;45.644;13.782;2024-02-16T08:49:00;22.73;;;11.90;;
79149;SDS011;68563;45.644;13.782;2024-02-16T08:51:25;21.60;;;12.25;;
79149;SDS011;68563;45.644;13.782;2024-02-16T08:53:51;23.15;;;12.18;;
79149;SDS011;68563;45.644;13.782;2024-02-16T08:56:16;23.88;;;12.77;;
79149;SDS011;68563;45.644;13.782;2024-02-16T08:58:42;27.30;;;12.85;;
79149;SDS011;68563;45.644;13.782;2024-02-16T09:01:07;23.67;;;12.98;;
79149;SDS011;68563;45.644;13.782;2024-02-16T09:03:33;24.40;;;13.23;;
79149;SDS011;68563;45.644;13.782;2024-02-16T09:06:02;20.80;;;12.32;;
79149;SDS011;68563;45.644;13.782;2024-02-16T09:08:28;26.15;;;13.10;;
79149;SDS011;68563;45.644;13.782;2024-02-16T09:10:59;22.52;;;12.48;;
79149;SDS011;68563;45.644;13.782;2024-02-16T09:13:24;23.50;;;11.73;;
79149;SDS011;68563;45.644;13.782;2024-02-16T09:15:50;22.75;;;11.38;;
79149;SDS011;68563;45.644;13.782;2024-02-16T09:18:16;23.02;;;11.43;;
79149;SDS011;68563;45.644;13.782;2024-02-16T09:20:42;18.27;;;10.82;;
79149;SDS011;68563;45.644;13.782;2024-02-16T09:23:07;20.48;;;10.63;;
79149;SDS011;68563;45.644;13.782;2024-02-16T09:25:34;16.20;;;8.80;;
79149;SDS011;68563;45.644;13.782;2024-02-16T09:28:00;19.23;;;10.18;;
79149;SDS011;68563;45.644;13.782;2024-02-16T09:30:25;19.88;;;11.00;;
79149;SDS011;68563;45.644;13.782;2024-02-16T09:32:51;20.63;;;9.85;;
79149;SDS011;68563;45.644;13.782;2024-02-16T09:35:17;18.08;;;10.13;;
79149;SDS011;68563;45.644;13.782;2024-02-16T09:37:42;19.70;;;10.43;;
79149;SDS011;68563;45.644;13.782;2024-02-16T09:40:08;16.48;;;9.68;;
79149;SDS011;68563;45.644;13.782;2024-02-16T09:42:37;18.02;;;9.95;;
79149;SDS011;68563;45.644;13.782;2024-02-16T09:45:04;17.23;;;9.55;;
79149;SDS011;68563;45.644;13.782;2024-02-16T09:47:32;20.05;;;9.70;;
79149;SDS011;68563;45.644;13.782;2024-02-16T09:50:00;18.55;;;9.82;;
79149;SDS011;68563;45.644;13.782;2024-02-16T09:52:25;19.45;;;9.90;;
79149;SDS011;68563;45.644;13.782;2024-02-16T09:54:51;19.10;;;9.48;;
79149;SDS011;68563;45.644;13.782;2024-02-16T09:57:17;17.73;;;9.43;;
79149;SDS011;68563;45.644;13.782;2024-02-16T09:59:43;16.33;;;9.52;;
79149;SDS011;68563;45.644;13.782;2024-02-16T10:02:08;17.35;;;9.23;;
79149;SDS011;68563;45.644;13.782;2024-02-16T10:04:34;16.33;;;9.63;;
79149;SDS011;68563;45.644;13.782;2024-02-16T10:07:00;18.67;;;10.60;;
79149;SDS011;68563;45.644;13.782;2024-02-16T10:09:26;20.20;;;9.88;;
79149;SDS011;68563;45.644;13.782;2024-02-16T10:11:54;17.65;;;9.70;;
79149;SDS011;68563;45.644;13.782;2024-02-16T10:14:20;15.32;;;8.82;;
79149;SDS011;68563;45.644;13.782;2024-02-16T10:16:58;16.80;;;8.75;;
79149;SDS011;68563;45.644;13.782;2024-02-16T10:19:25;16.40;;;8.85;;
79149;SDS011;68563;45.644;13.782;2024-02-16T10:21:50;16.98;;;8.63;;
79149;SDS011;68563;45.644;13.782;2024-02-16T10:24:20;16.00;;;9.23;;
79149;SDS011;68563;45.644;13.782;2024-02-16T10:26:47;18.08;;;9.75;;
79149;SDS011;68563;45.644;13.782;2024-02-16T10:29:14;16.00;;;9.10;;
79149;SDS011;68563;45.644;13.782;2024-02-16T10:31:45;16.23;;;8.90;;
79149;SDS011;68563;45.644;13.782;2024-02-16T10:34:10;16.13;;;9.07;;
79149;SDS011;68563;45.644;13.782;2024-02-16T10:36:37;15.57;;;8.50;;
79149;SDS011;68563;45.644;13.782;2024-02-16T10:39:04;15.05;;;8.32;;
79149;SDS011;68563;45.644;13.782;2024-02-16T10:41:40;13.65;;;8.45;;
79149;SDS011;68563;45.644;13.782;2024-02-16T10:44:06;15.00;;;8.48;;
79149;SDS011;68563;45.644;13.782;2024-02-16T10:46:32;15.20;;;8.48;;
79149;SDS011;68563;45.644;13.782;2024-02-16T10:48:59;18.10;;;8.45;;
79149;SDS011;68563;45.644;13.782;2024-02-16T10:51:30;15.70;;;8.00;;
79149;SDS011;68563;45.644;13.782;2024-02-16T10:54:01;14.40;;;7.80;;
79149;SDS011;68563;45.644;13.782;2024-02-16T10:56:33;15.38;;;7.57;;
79149;SDS011;68563;45.644;13.782;2024-02-16T10:59:05;14.02;;;7.90;;
79149;SDS011;68563;45.644;13.782;2024-02-16T11:01:39;21.25;;;8.65;;
79149;SDS011;68563;45.644;13.782;2024-02-16T11:04:11;14.30;;;8.25;;
79149;SDS011;68563;45.644;13.782;2024-02-16T11:06:47;15.80;;;8.30;;
79149;SDS011;68563;45.644;13.782;2024-02-16T11:11:58;12.73;;;7.82;;
79149;SDS011;68563;45.644;13.782;2024-02-16T11:14:33;12.35;;;7.68;;
79149;SDS011;68563;45.644;13.782;2024-02-16T11:17:08;11.43;;;6.80;;
79149;SDS011;68563;45.644;13.782;2024-02-16T11:19:37;12.90;;;7.55;;
79149;SDS011;68563;45.644;13.782;2024-02-16T11:22:06;11.27;;;7.05;;
79149;SDS011;68563;45.644;13.782;2024-02-16T11:24:36;14.73;;;7.47;;
79149;SDS011;68563;45.644;13.782;2024-02-16T11:27:03;12.15;;;7.38;;
79149;SDS011;68563;45.644;13.782;2024-02-16T11:29:33;11.90;;;6.93;;
79149;SDS011;68563;45.644;13.782;2024-02-16T11:32:02;9.98;;;6.55;;
79149;SDS011;68563;45.644;13.782;2024-02-16T11:34:29;11.95;;;6.95;;
79149;SDS011;68563;45.644;13.782;2024-02-16T11:36:55;10.80;;;7.07;;
79149;SDS011;68563;45.644;13.782;2024-02-16T11:39:22;11.45;;;7.18;;
79149;SDS011;68563;45.644;13.782;2024-02-16T11:41:48;11.32;;;7.35;;
79149;SDS011;68563;45.644;13.782;2024-02-16T11:44:23;12.43;;;7.60;;
79149;SDS011;68563;45.644;13.782;2024-02-16T11:46:52;13.90;;;8.07;;
79149;SDS011;68563;45.644;13.782;2024-02-16T11:49:18;11.98;;;7.30;;
79149;SDS011;68563;45.644;13.782;2024-02-16T11:51:44;11.73;;;7.13;;
79149;SDS011;68563;45.644;13.782;2024-02-16T11:54:09;11.52;;;7.28;;
79149;SDS011;68563;45.644;13.782;2024-02-16T11:56:35;11.45;;;7.05;;
79149;SDS011;68563;45.644;13.782;2024-02-16T11:59:02;11.18;;;6.85;;
79149;SDS011;68563;45.644;13.782;2024-02-16T12:01:28;11.25;;;6.75;;
79149;SDS011;68563;45.644;13.782;2024-02-16T12:03:54;12.65;;;7.25;;
79149;SDS011;68563;45.644;13.782;2024-02-16T12:06:20;11.10;;;7.05;;
79149;SDS011;68563;45.644;13.782;2024-02-16T12:08:49;12.98;;;7.53;;
79149;SDS011;68563;45.644;13.782;2024-02-16T12:11:15;12.18;;;7.38;;
79149;SDS011;68563;45.644;13.782;2024-02-16T12:13:41;11.63;;;7.07;;
79149;SDS011;68563;45.644;13.782;2024-02-16T12:16:06;11.38;;;7.35;;
79149;SDS011;68563;45.644;13.782;2024-02-16T12:18:32;11.68;;;6.72;;
79149;SDS011;68563;45.644;13.782;2024-02-16T12:23:23;10.20;;;6.40;;
79149;SDS011;68563;45.644;13.782;2024-02-16T12:25:48;12.07;;;6.78;;
79149;SDS011;68563;45.644;13.782;2024-02-16T12:28:13;11.25;;;7.10;;
79149;SDS011;68563;45.644;13.782;2024-02-16T12:30:39;11.45;;;7.13;;
79149;SDS011;68563;45.644;13.782;2024-02-16T12:33:05;13.38;;;7.72;;
79149;SDS011;68563;45.644;13.782;2024-02-16T12:35:30;11.73;;;7.28;;
79149;SDS011;68563;45.644;13.782;2024-02-16T12:37:56;12.60;;;7.20;;
79149;SDS011;68563;45.644;13.782;2024-02-16T12:40:21;11.73;;;7.50;;
79149;SDS011;68563;45.644;13.782;2024-02-16T12:42:47;12.57;;;7.72;;
79149;SDS011;68563;45.644;13.782;2024-02-16T12:45:13;19.55;;;7.95;;
79149;SDS011;68563;45.644;13.782;2024-02-16T12:47:38;16.50;;;7.68;;
79149;SDS011;68563;45.644;13.782;2024-02-16T12:50:04;12.15;;;7.70;;
79149;SDS011;68563;45.644;13.782;2024-02-16T12:52:29;11.45;;;7.28;;
79149;SDS011;68563;45.644;13.782;2024-02-16T12:54:56;11.38;;;7.30;;
79149;SDS011;68563;45.644;13.782;2024-02-16T12:57:23;10.35;;;7.03;;
79149;SDS011;68563;45.644;13.782;2024-02-16T12:59:49;13.15;;;7.70;;
79149;SDS011;68563;45.644;13.782;2024-02-16T13:02:14;11.10;;;7.43;;
79149;SDS011;68563;45.644;13.782;2024-02-16T13:04:40;12.15;;;7.90;;
79149;SDS011;68563;45.644;13.782;2024-02-16T13:07:05;12.23;;;7.30;;
79149;SDS011;68563;45.644;13.782;2024-02-16T13:09:31;13.43;;;7.85;;
79149;SDS011;68563;45.644;13.782;2024-02-16T13:11:56;14.68;;;7.57;;
79149;SDS011;68563;45.644;13.782;2024-02-16T13:14:22;12.50;;;7.80;;
79149;SDS011;68563;45.644;13.782;2024-02-16T13:16:47;11.48;;;7.20;;
79149;SDS011;68563;45.644;13.782;2024-02-16T13:19:13;10.93;;;6.97;;
79149;SDS011;68563;45.644;13.782;2024-02-16T13:21:38;10.65;;;7.13;;
79149;SDS011;68563;45.644;13.782;2024-02-16T13:24:04;9.70;;;6.65;;
79149;SDS011;68563;45.644;13.782;2024-02-16T13:26:31;12.00;;;6.57;;
79149;SDS011;68563;45.644;13.782;2024-02-16T13:28:59;9.50;;;6.88;;
79149;SDS011;68563;45.644;13.782;2024-02-16T13:31:25;12.55;;;7.55;;
79149;SDS011;68563;45.644;13.782;2024-02-16T13:33:52;13.27;;;7.70;;
79149;SDS011;68563;45.644;13.782;2024-02-16T13:36:18;12.98;;;8.13;;
79149;SDS011;68563;45.644;13.782;2024-02-16T13:38:43;12.65;;;7.93;;
79149;SDS011;68563;45.644;13.782;2024-02-16T13:41:09;13.35;;;8.25;;
79149;SDS011;68563;45.644;13.782;2024-02-16T13:43:34;13.55;;;7.82;;
79149;SDS011;68563;45.644;13.782;2024-02-16T13:46:00;15.13;;;8.18;;
79149;SDS011;68563;45.644;13.782;2024-02-16T13:48:26;13.52;;;7.90;;
79149;SDS011;68563;45.644;13.782;2024-02-16T13:50:53;16.95;;;9.32;;
79149;SDS011;68563;45.644;13.782;2024-02-16T13:53:19;16.15;;;9.43;;
79149;SDS011;68563;45.644;13.782;2024-02-16T13:55:48;15.93;;;9.45;;
79149;SDS011;68563;45.644;13.782;2024-02-16T13:58:14;14.52;;;8.73;;
79149;SDS011;68563;45.644;13.782;2024-02-16T14:00:39;14.50;;;7.80;;
79149;SDS011;68563;45.644;13.782;2024-02-16T14:03:06;14.45;;;7.65;;
79149;SDS011;68563;45.644;13.782;2024-02-16T14:05:34;10.63;;;7.28;;
79149;SDS011;68563;45.644;13.782;2024-02-16T14:08:01;12.70;;;7.38;;
79149;SDS011;68563;45.644;13.782;2024-02-16T14:10:26;11.20;;;6.72;;
79149;SDS011;68563;45.644;13.782;2024-02-16T14:12:51;10.75;;;6.80;;